Bengough, Canada
Current Conditions -  °F | °C
As of 11:00 AM on Friday 19 Dec 2014 (Local Time) from CYQR Reporting Station
Haze Haze  
Wind Chill: 18°   Ceiling: 300
Heat Index: 18°   Visibility: 0.75mi
Dew Point: 16°   Wind: 3mph
Humidity: 93%   Direction: 310°NW
Pressure: 29.94"   Gusts: NA
Location:  49.4°N, 105.12°W
Report Text: CYQR 191700Z 31003KT 280V360 3/4SM R13/P6000FT/U BR VV003 M08/M09 A2994 RMK FG8 CIG VRB 2-4 SLP175
Loading
Personal Weather Stations






























Interactive Weather Map New forecast layout! Learn more

10-Day Weather Forecast

Advertisements
Track Severe Weather on mobile